createdAt,value
2017-12-25T00:00:44.111Z,0.78
2017-12-25T00:05:51.346Z,0.89
2017-12-25T00:08:20.377Z,0.67
2017-12-25T00:10:49.425Z,0.67
2017-12-25T00:13:18.485Z,0.83
2017-12-25T00:15:47.529Z,0.63
2017-12-25T00:18:16.585Z,0.78
2017-12-25T00:20:45.691Z,0.54
2017-12-25T00:23:14.718Z,0.62
2017-12-25T00:25:44.663Z,0.54
2017-12-25T00:28:13.730Z,0.52
2017-12-25T00:30:42.766Z,0.39
2017-12-25T00:33:13.738Z,0.54
2017-12-25T00:35:42.853Z,0.53
2017-12-25T00:38:14.004Z,0.45
2017-12-25T00:40:43.045Z,0.55
2017-12-25T00:43:12.097Z,0.38
2017-12-25T00:45:41.168Z,0.41
2017-12-25T00:48:10.216Z,0.34
2017-12-25T00:50:40.157Z,0.25
2017-12-25T00:53:30.357Z,0.34
2017-12-25T00:55:59.479Z,0.51
2017-12-25T00:58:30.555Z,0.47
2017-12-25T01:01:03.389Z,0.64
2017-12-25T01:03:37.857Z,0.57
2017-12-25T01:06:07.219Z,0.63
2017-12-25T01:08:36.266Z,0.48
2017-12-25T01:11:05.310Z,0.69
2017-12-25T01:13:34.349Z,0.63
2017-12-25T01:16:03.417Z,0.62
2017-12-25T01:18:32.443Z,0.55
2017-12-25T01:21:02.471Z,0.60
2017-12-25T01:26:13.414Z,0.64
2017-12-25T01:28:42.450Z,0.72
2017-12-25T01:31:11.486Z,0.75
2017-12-25T01:33:48.201Z,0.78
2017-12-25T01:36:17.254Z,0.65
2017-12-25T01:38:47.221Z,0.69
2017-12-25T01:41:16.289Z,0.72
2017-12-25T01:46:21.072Z,0.67
2017-12-25T01:49:02.654Z,0.49
2017-12-25T01:51:45.474Z,0.35
2017-12-25T01:54:14.498Z,0.29
2017-12-25T01:56:46.858Z,0.34
2017-12-25T02:02:18.152Z,0.39
2017-12-25T02:05:01.995Z,0.22
2017-12-25T02:10:07.619Z,0.24
2017-12-25T02:13:01.934Z,0.35
2017-12-25T02:15:31.002Z,0.34
2017-12-25T02:18:03.150Z,0.24
2017-12-25T02:20:32.329Z,0.21
2017-12-25T02:23:01.383Z,0.33
2017-12-25T02:25:30.433Z,0.35
2017-12-25T02:27:59.486Z,0.34
2017-12-25T02:30:28.542Z,0.27
2017-12-25T02:32:57.601Z,0.04
2017-12-25T02:35:26.687Z,-0.01
2017-12-25T02:37:55.762Z,-0.07
2017-12-25T02:40:24.829Z,-0.16
2017-12-25T02:42:54.857Z,-0.27
2017-12-25T02:45:23.915Z,-0.22
2017-12-25T02:47:52.984Z,-0.21
2017-12-25T02:50:22.039Z,-0.30
2017-12-25T02:52:51.090Z,-0.28
2017-12-25T02:55:20.148Z,-0.21
2017-12-25T03:00:27.644Z,-0.33
2017-12-25T03:03:00.262Z,-0.30
2017-12-25T03:05:29.319Z,-0.28
2017-12-25T03:08:07.533Z,-0.40
2017-12-25T03:10:36.914Z,-0.54
2017-12-25T03:13:07.006Z,-0.57
2017-12-25T03:15:36.068Z,-0.53
2017-12-25T03:18:05.120Z,-0.53
2017-12-25T03:20:34.162Z,-0.49
2017-12-25T03:23:03.224Z,-0.57
2017-12-25T03:25:32.281Z,-0.54
2017-12-25T03:28:02.326Z,-0.60
2017-12-25T03:33:14.122Z,-0.33
2017-12-25T03:35:44.134Z,-0.37
2017-12-25T03:38:15.213Z,-0.33
2017-12-25T03:40:44.266Z,-0.31
2017-12-25T03:43:39.416Z,-0.34
2017-12-25T03:46:19.739Z,-0.43
2017-12-25T03:48:48.805Z,-0.40
2017-12-25T03:51:18.003Z,-0.40
2017-12-25T03:53:47.122Z,-0.49
2017-12-25T03:56:16.181Z,-0.61
2017-12-25T03:58:45.229Z,-0.67
2017-12-25T04:01:16.198Z,-0.49
2017-12-25T04:03:45.247Z,-0.44
2017-12-25T04:06:14.301Z,-0.46
2017-12-25T04:08:43.350Z,-0.35
2017-12-25T04:11:13.381Z,-0.32
2017-12-25T04:13:49.362Z,-0.40
2017-12-25T04:16:35.314Z,-0.38
2017-12-25T04:19:05.322Z,-0.24
2017-12-25T04:21:34.370Z,-0.19
2017-12-25T04:24:04.341Z,-0.50
2017-12-25T04:26:37.978Z,-0.30
2017-12-25T04:29:08.941Z,-0.28
2017-12-25T04:31:39.897Z,-0.27
2017-12-25T04:34:10.865Z,-0.38
2017-12-25T04:36:39.909Z,-0.49
2017-12-25T04:39:10.874Z,-0.44
2017-12-25T04:41:39.920Z,-0.38
2017-12-25T04:44:17.834Z,-0.37
2017-12-25T04:46:47.886Z,-0.44
2017-12-25T04:49:28.023Z,-0.51
2017-12-25T04:51:57.061Z,-0.50
2017-12-25T04:54:26.149Z,-0.43
2017-12-25T04:56:55.220Z,-0.30
2017-12-25T04:59:24.265Z,-0.36
2017-12-25T05:01:53.321Z,-0.39
2017-12-25T05:04:32.031Z,-0.34
2017-12-25T05:07:09.926Z,-0.57
2017-12-25T05:09:39.870Z,-0.58
2017-12-25T05:12:13.893Z,-0.63
2017-12-25T05:14:42.936Z,-0.75
2017-12-25T05:17:39.288Z,-0.74
2017-12-25T05:22:43.550Z,-0.71
2017-12-25T05:25:16.592Z,-0.64
2017-12-25T05:27:50.506Z,-0.64
2017-12-25T05:30:20.499Z,-0.67
2017-12-25T05:32:54.334Z,-0.73
2017-12-25T05:35:23.382Z,-0.73
2017-12-25T05:40:58.282Z,-0.90
2017-12-25T05:43:37.805Z,-0.92
2017-12-25T05:46:06.963Z,-0.89
2017-12-25T05:48:36.015Z,-0.88
2017-12-25T05:51:05.067Z,-0.85
2017-12-25T05:56:30.294Z,-1.05
2017-12-25T05:59:02.441Z,-1.22
2017-12-25T06:01:31.527Z,-1.18
2017-12-25T06:04:02.522Z,-1.08
2017-12-25T06:06:33.577Z,-0.98
2017-12-25T06:09:02.626Z,-1.00
2017-12-25T06:11:33.623Z,-0.98
2017-12-25T06:14:02.677Z,-0.93
2017-12-25T06:19:10.194Z,-0.92
2017-12-25T06:21:39.245Z,-0.89
2017-12-25T06:24:08.311Z,-0.86
2017-12-25T06:26:54.790Z,-0.72
2017-12-25T06:29:23.839Z,-0.94
2017-12-25T06:34:34.210Z,-0.84
2017-12-25T06:37:26.198Z,-0.87
2017-12-25T06:39:55.243Z,-0.77
2017-12-25T06:42:29.838Z,-0.67
2017-12-25T06:44:59.777Z,-0.73
2017-12-25T06:47:28.834Z,-0.56
2017-12-25T06:49:57.892Z,-0.46
2017-12-25T06:52:26.966Z,-0.37
2017-12-25T06:54:56.018Z,-0.42
2017-12-25T06:57:25.322Z,-0.30
2017-12-25T06:59:54.373Z,-0.35
2017-12-25T07:02:26.874Z,-0.32
2017-12-25T07:04:55.937Z,-0.53
2017-12-25T07:07:25.062Z,-0.52
2017-12-25T07:09:54.128Z,-0.64
2017-12-25T07:12:23.196Z,-0.47
2017-12-25T07:14:52.247Z,-0.48
2017-12-25T07:17:21.362Z,-0.71
2017-12-25T07:19:50.409Z,-0.54
2017-12-25T07:22:19.471Z,-0.53
2017-12-25T07:24:48.521Z,-0.69
2017-12-25T07:27:19.590Z,-0.79
2017-12-25T07:29:48.638Z,-0.86
2017-12-25T07:32:17.686Z,-0.82
2017-12-25T07:34:46.740Z,-0.67
2017-12-25T07:37:15.790Z,-0.71
2017-12-25T07:39:44.835Z,-0.70
2017-12-25T07:42:14.880Z,-0.71
2017-12-25T07:44:44.022Z,-0.68
2017-12-25T07:49:50.244Z,-0.78
2017-12-25T07:52:20.290Z,-0.85
2017-12-25T07:54:49.333Z,-0.85
2017-12-25T07:57:19.424Z,-0.78
2017-12-25T07:59:48.469Z,-0.64
2017-12-25T08:02:17.754Z,-0.51
2017-12-25T08:04:46.770Z,-0.37
2017-12-25T08:07:15.825Z,-0.54
2017-12-25T08:09:44.875Z,-0.51
2017-12-25T08:12:17.033Z,-0.46
2017-12-25T08:14:46.084Z,-0.40
2017-12-25T08:17:16.098Z,-0.44
2017-12-25T08:19:45.160Z,-0.18
2017-12-25T08:22:14.213Z,-0.42
2017-12-25T08:29:53.716Z,0.12
2017-12-25T08:32:24.683Z,-0.15
2017-12-25T08:34:53.734Z,-0.16
2017-12-25T08:37:22.886Z,-0.59
2017-12-25T08:39:52.946Z,-0.41
2017-12-25T08:42:22.041Z,-0.21
2017-12-25T08:47:27.414Z,-0.19
2017-12-25T08:50:00.309Z,0.05
2017-12-25T08:52:31.327Z,-0.24
2017-12-25T08:55:01.352Z,0.06
2017-12-25T09:00:07.782Z,0.43
2017-12-25T09:02:40.626Z,0.63
2017-12-25T09:07:53.066Z,0.39
2017-12-25T09:10:22.122Z,0.39
2017-12-25T09:12:51.194Z,0.49
2017-12-25T09:15:21.141Z,0.32
2017-12-25T09:17:50.310Z,0.77
2017-12-25T09:20:19.350Z,0.79
2017-12-25T09:22:48.398Z,0.50
2017-12-25T09:25:17.452Z,0.65
2017-12-25T09:30:22.676Z,0.78
2017-12-25T09:32:51.728Z,1.28
2017-12-25T09:35:20.766Z,0.67
2017-12-25T09:37:49.842Z,1.23
2017-12-25T09:40:18.886Z,1.51
2017-12-25T09:42:48.053Z,2.29
2017-12-25T09:45:17.142Z,2.41
2017-12-25T09:47:46.186Z,2.26
2017-12-25T09:50:15.217Z,2.39
2017-12-25T09:52:44.257Z,2.36
2017-12-25T09:55:13.307Z,2.29
2017-12-25T09:57:42.345Z,2.34
2017-12-25T10:00:11.506Z,3.22
2017-12-25T10:02:40.538Z,3.11
2017-12-25T10:05:09.565Z,3.15
2017-12-25T10:07:42.304Z,3.16
2017-12-25T10:10:11.331Z,3.47
2017-12-25T10:15:15.554Z,3.55
2017-12-25T10:17:44.632Z,5.31
2017-12-25T10:20:13.678Z,6.83
2017-12-25T10:22:42.746Z,7.06
2017-12-25T10:25:11.822Z,8.26
2017-12-25T10:27:43.883Z,9.86
2017-12-25T10:30:12.959Z,11.23
2017-12-25T10:32:41.991Z,12.86
2017-12-25T10:35:11.066Z,14.03
2017-12-25T10:37:40.122Z,15.38
2017-12-25T10:40:09.161Z,16.76
2017-12-25T10:42:38.193Z,17.05
2017-12-25T10:45:07.239Z,17.64
2017-12-25T10:47:36.334Z,17.35
2017-12-25T10:50:05.331Z,18.00
2017-12-25T10:52:34.370Z,19.41
2017-12-25T11:00:13.886Z,21.06
2017-12-25T11:02:43.867Z,21.75
2017-12-25T11:05:12.910Z,22.24
2017-12-25T11:07:42.002Z,22.60
2017-12-25T11:10:11.038Z,23.39
2017-12-25T11:12:40.138Z,22.67
2017-12-25T11:15:09.138Z,23.08
2017-12-25T11:20:13.439Z,23.70
2017-12-25T11:22:42.478Z,23.31
2017-12-25T11:25:11.526Z,22.60
2017-12-25T11:27:40.569Z,22.92
2017-12-25T11:30:09.607Z,22.36
2017-12-25T11:32:43.502Z,22.75
2017-12-25T11:35:12.530Z,22.72
2017-12-25T11:37:41.593Z,23.02
2017-12-25T11:40:10.638Z,22.70
2017-12-25T11:42:39.674Z,23.53
2017-12-25T11:45:08.722Z,23.70
2017-12-25T11:47:37.898Z,24.10
2017-12-25T11:50:06.938Z,23.60
2017-12-25T11:52:35.993Z,24.08
2017-12-25T11:55:05.036Z,24.19
2017-12-25T11:57:34.082Z,23.00
2017-12-25T12:00:03.126Z,23.63
2017-12-25T12:02:32.178Z,22.44
2017-12-25T12:05:01.238Z,21.68
2017-12-25T12:07:30.297Z,21.75
2017-12-25T12:09:59.372Z,21.27
2017-12-25T12:15:03.679Z,21.29
2017-12-25T12:17:32.758Z,20.13
2017-12-25T12:20:02.741Z,19.81
2017-12-25T12:22:31.786Z,19.08
2017-12-25T12:25:00.846Z,18.23
2017-12-25T12:27:29.902Z,17.53
2017-12-25T12:29:59.879Z,17.28
2017-12-25T12:32:28.952Z,17.40
2017-12-25T12:34:59.014Z,16.45
2017-12-25T12:37:28.064Z,15.72
2017-12-25T12:39:57.106Z,15.35
2017-12-25T12:42:26.280Z,15.78
2017-12-25T12:44:55.294Z,16.02
2017-12-25T12:47:25.314Z,15.98
2017-12-25T12:49:55.435Z,15.35
2017-12-25T12:52:26.411Z,14.89
2017-12-25T12:57:31.850Z,16.04
2017-12-25T13:00:00.902Z,16.61
2017-12-25T13:02:29.948Z,16.59
2017-12-25T13:05:02.302Z,16.73
2017-12-25T13:10:06.610Z,16.76
2017-12-25T13:12:35.645Z,17.65
2017-12-25T13:15:04.698Z,18.02
2017-12-25T13:17:33.767Z,18.39
2017-12-25T13:20:02.838Z,19.53
2017-12-25T13:25:09.159Z,20.83
2017-12-25T13:27:38.195Z,20.70
2017-12-25T13:30:07.254Z,21.12
2017-12-25T13:32:36.293Z,21.18
2017-12-25T13:35:05.516Z,21.05
2017-12-25T13:37:34.579Z,21.87
2017-12-25T13:40:03.658Z,21.60
2017-12-25T13:42:32.717Z,22.46
2017-12-25T13:45:02.735Z,21.89
2017-12-25T13:47:31.790Z,21.13
2017-12-25T13:50:00.837Z,19.51
2017-12-25T13:52:29.893Z,18.26
2017-12-25T13:54:58.942Z,17.07
2017-12-25T13:57:28.005Z,16.64
2017-12-25T13:59:58.983Z,15.64
2017-12-25T14:02:28.030Z,14.42
2017-12-25T14:04:57.067Z,13.43
2017-12-25T14:07:28.112Z,11.74
2017-12-25T14:09:58.130Z,10.62
2017-12-25T14:12:27.169Z,10.16
2017-12-25T14:14:56.330Z,9.61
2017-12-25T14:17:25.386Z,8.85
2017-12-25T14:25:04.940Z,8.14
2017-12-25T14:27:33.965Z,7.88
2017-12-25T14:30:03.306Z,7.58
2017-12-25T14:32:32.334Z,7.01
2017-12-25T14:35:01.370Z,6.71
2017-12-25T14:37:35.112Z,6.70
2017-12-25T14:40:04.147Z,6.11
2017-12-25T14:42:33.190Z,5.90
2017-12-25T14:47:39.939Z,5.58
2017-12-25T14:50:08.974Z,5.60
2017-12-25T14:52:38.013Z,5.51
2017-12-25T14:55:07.054Z,5.06
2017-12-25T14:57:36.098Z,4.94
2017-12-25T15:00:05.162Z,4.64
2017-12-25T15:02:39.305Z,4.49
2017-12-25T15:05:08.322Z,4.28
2017-12-25T15:07:38.358Z,4.14
2017-12-25T15:10:07.409Z,3.93
2017-12-25T15:12:36.454Z,3.67
2017-12-25T15:15:05.503Z,3.62
2017-12-25T15:17:34.538Z,3.35
2017-12-25T15:20:03.578Z,3.10
2017-12-25T15:25:07.817Z,2.80
2017-12-25T15:27:37.779Z,2.80
2017-12-25T15:30:06.833Z,2.48
2017-12-25T15:32:35.878Z,2.25
2017-12-25T15:35:05.814Z,2.09
2017-12-25T15:37:35.853Z,2.02
2017-12-25T15:40:04.894Z,1.80
2017-12-25T15:42:33.925Z,1.73
2017-12-25T15:45:08.076Z,1.57
2017-12-25T15:47:39.074Z,1.62
2017-12-25T15:50:08.119Z,1.25
2017-12-25T15:52:39.062Z,0.97
2017-12-25T15:55:08.142Z,0.86
2017-12-25T15:57:37.188Z,0.77
2017-12-25T16:00:06.223Z,0.79
2017-12-25T16:02:38.382Z,0.82
2017-12-25T16:05:07.431Z,0.60
2017-12-25T16:07:36.483Z,0.63
2017-12-25T16:10:05.524Z,0.47
2017-12-25T16:12:34.578Z,0.48
2017-12-25T16:15:03.654Z,0.37
2017-12-25T16:17:32.698Z,0.38
2017-12-25T16:22:36.943Z,0.37
2017-12-25T16:25:07.098Z,0.19
2017-12-25T16:27:36.142Z,0.22
2017-12-25T16:32:40.475Z,0.20
2017-12-25T16:35:27.171Z,-0.06
2017-12-25T16:38:00.266Z,-0.02
2017-12-25T16:40:29.326Z,-0.05
2017-12-25T16:42:58.414Z,-0.10
2017-12-25T16:45:27.481Z,-0.02
2017-12-25T16:47:58.775Z,-0.11
2017-12-25T16:50:28.130Z,-0.13
2017-12-25T16:52:57.182Z,-0.15
2017-12-25T16:55:26.257Z,-0.20
2017-12-25T16:57:55.313Z,-0.37
2017-12-25T17:00:32.823Z,-0.46
2017-12-25T17:03:01.871Z,-0.49
2017-12-25T17:05:30.948Z,-0.69
2017-12-25T17:08:00.014Z,-0.64
2017-12-25T17:10:29.072Z,-0.65
2017-12-25T17:12:58.169Z,-0.80
2017-12-25T17:15:27.210Z,-0.78
2017-12-25T17:17:56.259Z,-0.67
2017-12-25T17:20:25.310Z,-0.69
2017-12-25T17:22:54.392Z,-0.69
2017-12-25T17:25:28.210Z,-0.65
2017-12-25T17:27:57.329Z,-0.67
2017-12-25T17:30:26.434Z,-0.84
2017-12-25T17:32:55.623Z,-0.83
2017-12-25T17:35:30.258Z,-0.72
2017-12-25T17:37:59.346Z,-0.83
2017-12-25T17:40:33.075Z,-0.79
2017-12-25T17:43:02.122Z,-0.68
2017-12-25T17:48:07.362Z,-0.84
2017-12-25T17:50:36.448Z,-0.78
2017-12-25T17:53:05.519Z,-0.88
2017-12-25T17:58:11.431Z,-0.92
2017-12-25T18:00:40.675Z,-0.96
2017-12-25T18:03:11.677Z,-0.85
2017-12-25T18:08:16.213Z,-0.91
2017-12-25T18:10:48.567Z,-1.07
2017-12-25T18:13:18.764Z,-1.08
2017-12-25T18:15:47.798Z,-1.07
2017-12-25T18:18:16.876Z,-1.10
2017-12-25T18:20:49.242Z,-1.05
2017-12-25T18:23:18.354Z,-0.93
2017-12-25T18:25:47.411Z,-0.95
2017-12-25T18:28:16.477Z,-0.98
2017-12-25T18:30:45.554Z,-1.00
2017-12-25T18:33:14.636Z,-1.13
2017-12-25T18:35:45.680Z,-1.07
2017-12-25T18:38:14.730Z,-1.17
2017-12-25T18:40:43.791Z,-1.09
2017-12-25T18:43:12.844Z,-1.05
2017-12-25T18:45:41.894Z,-1.12
2017-12-25T18:48:10.967Z,-1.13
2017-12-25T18:50:43.258Z,-1.08
2017-12-25T18:53:16.976Z,-1.26
2017-12-25T18:55:50.654Z,-1.26
2017-12-25T18:58:19.707Z,-1.38
2017-12-25T19:00:49.171Z,-1.33
2017-12-25T19:03:19.112Z,-1.25
2017-12-25T19:08:26.354Z,-1.29
2017-12-25T19:10:55.414Z,-1.25
2017-12-25T19:13:24.579Z,-1.42
2017-12-25T19:15:53.642Z,-1.44
2017-12-25T19:18:22.935Z,-1.40
2017-12-25T19:26:12.793Z,-1.49
2017-12-25T19:28:43.943Z,-1.48
2017-12-25T19:31:13.031Z,-1.61
2017-12-25T19:33:42.101Z,-1.75
2017-12-25T19:36:12.076Z,-1.73
2017-12-25T19:38:41.162Z,-1.69
2017-12-25T19:41:19.373Z,-1.74
2017-12-25T19:43:48.459Z,-1.76
2017-12-25T19:46:17.493Z,-1.70
2017-12-25T19:48:46.740Z,-1.69
2017-12-25T19:51:15.790Z,-1.76
2017-12-25T19:53:44.974Z,-1.82
2017-12-25T19:56:19.334Z,-1.94
2017-12-25T19:58:48.383Z,-1.92
2017-12-25T20:01:32.284Z,-1.82
2017-12-25T20:04:06.448Z,-1.77
2017-12-25T20:06:35.674Z,-1.84
2017-12-25T20:09:14.207Z,-1.87
2017-12-25T20:11:44.206Z,-2.04
2017-12-25T20:14:15.257Z,-2.08
2017-12-25T20:16:44.305Z,-2.01
2017-12-25T20:19:13.516Z,-1.94
2017-12-25T20:21:42.580Z,-1.88
2017-12-25T20:24:13.878Z,-1.82
2017-12-25T20:26:43.008Z,-1.82
2017-12-25T20:29:13.994Z,-1.91
2017-12-25T20:31:43.113Z,-2.06
2017-12-25T20:34:12.226Z,-2.06
2017-12-25T20:36:41.314Z,-2.00
2017-12-25T20:39:14.856Z,-1.84
2017-12-25T20:41:43.876Z,-1.73
2017-12-25T20:44:16.653Z,-1.69
2017-12-25T20:46:45.721Z,-1.57
2017-12-25T20:51:51.931Z,-1.55
2017-12-25T20:54:25.697Z,-1.64
2017-12-25T20:56:55.701Z,-1.72
2017-12-25T20:59:31.401Z,-1.79
2017-12-25T21:04:37.701Z,-1.85
2017-12-25T21:07:06.745Z,-1.90
2017-12-25T21:09:36.795Z,-1.85
2017-12-25T21:14:41.014Z,-1.70
2017-12-25T21:17:10.607Z,-1.54
2017-12-25T21:25:17.437Z,-1.48
2017-12-25T21:27:51.928Z,-1.58
2017-12-25T21:30:21.021Z,-1.57
2017-12-25T21:32:50.071Z,-1.56
2017-12-25T21:35:19.246Z,-1.48
2017-12-25T21:37:52.730Z,-1.43
2017-12-25T21:40:22.794Z,-1.52
2017-12-25T21:42:53.839Z,-1.53
2017-12-25T21:45:22.904Z,-1.59
2017-12-25T21:47:56.508Z,-1.74
2017-12-25T21:50:29.616Z,-1.72
2017-12-25T21:52:58.910Z,-1.52
2017-12-25T21:58:05.116Z,-1.33
2017-12-25T22:00:36.287Z,-1.11
2017-12-25T22:03:06.163Z,-0.98
2017-12-25T22:05:42.448Z,-0.87
2017-12-25T22:08:11.508Z,-0.70
2017-12-25T22:10:40.560Z,-0.73
2017-12-25T22:13:09.610Z,-0.72
2017-12-25T22:18:25.866Z,-0.72
2017-12-25T22:20:54.934Z,-0.80
2017-12-25T22:23:25.944Z,-0.83
2017-12-25T22:25:55.017Z,-0.97
2017-12-25T22:28:24.353Z,-1.06
2017-12-25T22:30:53.439Z,-1.06
2017-12-25T22:33:22.465Z,-0.99
2017-12-25T22:35:55.501Z,-1.02
2017-12-25T22:38:24.608Z,-1.01
2017-12-25T22:43:32.422Z,-0.69
2017-12-25T22:46:01.484Z,-0.58
2017-12-25T22:48:31.690Z,-0.46
2017-12-25T22:51:00.717Z,-0.37
2017-12-25T22:53:29.814Z,-0.42
2017-12-25T22:56:02.774Z,-0.39
2017-12-25T22:58:31.829Z,-0.30
2017-12-25T23:01:00.862Z,-0.36
2017-12-25T23:03:29.925Z,-0.32
2017-12-25T23:06:02.243Z,-0.32
2017-12-25T23:08:31.453Z,-0.35
2017-12-25T23:11:03.757Z,-0.27
2017-12-25T23:13:32.794Z,-0.27
2017-12-25T23:16:01.842Z,-0.38
2017-12-25T23:18:30.906Z,-0.26
2017-12-25T23:21:03.913Z,-0.26
2017-12-25T23:23:32.958Z,-0.22
2017-12-25T23:26:03.942Z,-0.16
2017-12-25T23:28:32.990Z,-0.24
2017-12-25T23:31:02.050Z,-0.20
2017-12-25T23:33:31.116Z,-0.33
2017-12-25T23:36:04.054Z,-0.48
2017-12-25T23:38:33.136Z,-0.76
2017-12-25T23:43:37.427Z,-0.90
2017-12-25T23:46:06.474Z,-1.12
2017-12-25T23:48:35.530Z,-1.15
2017-12-25T23:51:05.788Z,-1.14
2017-12-25T23:53:34.794Z,-1.23
2017-12-25T23:56:06.913Z,-1.10
2017-12-25T23:58:35.986Z,-1.05
